sensor_id;sensor_type;location;lat;lon;timestamp;pressure;altitude;pressure_sealevel;temperature;humidity
4617;BME280;2321;42.704;23.384;2023-02-20T00:00:45;95753.91;;;11.38;nan
4617;BME280;2321;42.704;23.384;2023-02-20T00:03:13;95745.66;;;11.32;nan
4617;BME280;2321;42.704;23.384;2023-02-20T00:05:41;95752.41;;;11.28;nan
4617;BME280;2321;42.704;23.384;2023-02-20T00:08:08;95747.63;;;11.24;nan
4617;BME280;2321;42.704;23.384;2023-02-20T00:10:35;95749.66;;;11.21;nan
4617;BME280;2321;42.704;23.384;2023-02-20T00:13:02;95739.28;;;11.11;nan
4617;BME280;2321;42.704;23.384;2023-02-20T00:15:30;95747.66;;;11.08;nan
4617;BME280;2321;42.704;23.384;2023-02-20T00:17:57;95747.84;;;11.07;nan
4617;BME280;2321;42.704;23.384;2023-02-20T00:20:25;95753.09;;;11.00;nan
4617;BME280;2321;42.704;23.384;2023-02-20T00:22:55;95761.25;;;10.98;nan
4617;BME280;2321;42.704;23.384;2023-02-20T00:25:21;95757.13;;;10.96;nan
4617;BME280;2321;42.704;23.384;2023-02-20T00:27:48;95753.19;;;10.92;nan
4617;BME280;2321;42.704;23.384;2023-02-20T00:30:17;95754.22;;;10.91;nan
4617;BME280;2321;42.704;23.384;2023-02-20T00:32:47;95762.19;;;10.91;nan
4617;BME280;2321;42.704;23.384;2023-02-20T00:35:14;95745.28;;;10.83;nan
4617;BME280;2321;42.704;23.384;2023-02-20T00:37:42;95747.31;;;10.81;nan
4617;BME280;2321;42.704;23.384;2023-02-20T00:40:09;95736.22;;;10.77;nan
4617;BME280;2321;42.704;23.384;2023-02-20T00:42:36;95728.78;;;10.73;nan
4617;BME280;2321;42.704;23.384;2023-02-20T00:45:04;95730.25;;;10.75;nan
4617;BME280;2321;42.704;23.384;2023-02-20T00:47:31;95732.44;;;10.72;nan
4617;BME280;2321;42.704;23.384;2023-02-20T00:49:59;95733.44;;;10.71;nan
4617;BME280;2321;42.704;23.384;2023-02-20T00:52:26;95743.56;;;10.60;nan
4617;BME280;2321;42.704;23.384;2023-02-20T00:54:53;95752.19;;;10.62;nan
4617;BME280;2321;42.704;23.384;2023-02-20T00:57:20;95752.19;;;10.62;nan
4617;BME280;2321;42.704;23.384;2023-02-20T00:59:47;95753.56;;;10.58;nan
4617;BME280;2321;42.704;23.384;2023-02-20T01:02:14;95762.56;;;10.57;nan
4617;BME280;2321;42.704;23.384;2023-02-20T01:04:41;95765.25;;;10.57;nan
4617;BME280;2321;42.704;23.384;2023-02-20T01:07:09;95769.59;;;10.50;nan
4617;BME280;2321;42.704;23.384;2023-02-20T01:09:36;95785.94;;;10.46;nan
4617;BME280;2321;42.704;23.384;2023-02-20T01:12:04;95772.00;;;10.44;nan
4617;BME280;2321;42.704;23.384;2023-02-20T01:14:31;95793.66;;;10.41;nan
4617;BME280;2321;42.704;23.384;2023-02-20T01:16:58;95795.66;;;10.39;nan
4617;BME280;2321;42.704;23.384;2023-02-20T01:19:25;95801.72;;;10.33;nan
4617;BME280;2321;42.704;23.384;2023-02-20T01:21:51;95802.06;;;10.30;nan
4617;BME280;2321;42.704;23.384;2023-02-20T01:24:20;95809.38;;;10.28;nan
4617;BME280;2321;42.704;23.384;2023-02-20T01:26:48;95805.25;;;10.25;nan
4617;BME280;2321;42.704;23.384;2023-02-20T01:29:16;95816.72;;;10.26;nan
4617;BME280;2321;42.704;23.384;2023-02-20T01:31:46;95815.38;;;10.30;nan
4617;BME280;2321;42.704;23.384;2023-02-20T01:34:13;95814.34;;;10.31;nan
4617;BME280;2321;42.704;23.384;2023-02-20T01:36:44;95811.88;;;10.29;nan
4617;BME280;2321;42.704;23.384;2023-02-20T01:39:11;95812.72;;;10.30;nan
4617;BME280;2321;42.704;23.384;2023-02-20T01:41:40;95803.53;;;10.32;nan
4617;BME280;2321;42.704;23.384;2023-02-20T01:44:16;95809.69;;;10.33;nan
4617;BME280;2321;42.704;23.384;2023-02-20T01:46:47;95815.19;;;10.31;nan
4617;BME280;2321;42.704;23.384;2023-02-20T01:49:20;95814.00;;;10.34;nan
4617;BME280;2321;42.704;23.384;2023-02-20T01:51:52;95808.03;;;10.32;nan
4617;BME280;2321;42.704;23.384;2023-02-20T01:54:23;95803.72;;;10.31;nan
4617;BME280;2321;42.704;23.384;2023-02-20T01:56:53;95803.72;;;10.31;nan
4617;BME280;2321;42.704;23.384;2023-02-20T01:59:23;95816.38;;;10.29;nan
4617;BME280;2321;42.704;23.384;2023-02-20T02:01:51;95805.09;;;10.27;nan
4617;BME280;2321;42.704;23.384;2023-02-20T02:04:19;95804.72;;;10.30;nan
4617;BME280;2321;42.704;23.384;2023-02-20T02:06:48;95803.91;;;10.29;nan
4617;BME280;2321;42.704;23.384;2023-02-20T02:09:22;95815.91;;;10.25;nan
4617;BME280;2321;42.704;23.384;2023-02-20T02:11:54;95815.63;;;10.20;nan
4617;BME280;2321;42.704;23.384;2023-02-20T02:14:21;95816.47;;;10.20;nan
4617;BME280;2321;42.704;23.384;2023-02-20T02:16:58;95816.16;;;10.15;nan
4617;BME280;2321;42.704;23.384;2023-02-20T02:19:48;95818.16;;;10.13;nan
4617;BME280;2321;42.704;23.384;2023-02-20T02:22:52;95822.38;;;10.07;nan
4617;BME280;2321;42.704;23.384;2023-02-20T02:25:37;95828.88;;;10.05;nan
4617;BME280;2321;42.704;23.384;2023-02-20T02:28:38;95821.59;;;9.98;nan
4617;BME280;2321;42.704;23.384;2023-02-20T02:31:48;95823.84;;;9.86;nan
4617;BME280;2321;42.704;23.384;2023-02-20T02:35:07;95834.72;;;9.76;nan
4617;BME280;2321;42.704;23.384;2023-02-20T02:37:47;95836.78;;;9.66;nan
4617;BME280;2321;42.704;23.384;2023-02-20T02:40:21;95824.19;;;9.59;nan
4617;BME280;2321;42.704;23.384;2023-02-20T02:42:56;95843.50;;;9.53;nan
4617;BME280;2321;42.704;23.384;2023-02-20T02:45:29;95818.66;;;9.37;nan
4617;BME280;2321;42.704;23.384;2023-02-20T02:48:07;95851.19;;;9.40;nan
4617;BME280;2321;42.704;23.384;2023-02-20T02:50:40;95858.03;;;9.34;nan
4617;BME280;2321;42.704;23.384;2023-02-20T02:53:10;95871.03;;;9.29;nan
4617;BME280;2321;42.704;23.384;2023-02-20T02:55:38;95863.56;;;9.24;nan
4617;BME280;2321;42.704;23.384;2023-02-20T02:58:05;95869.88;;;9.23;nan
4617;BME280;2321;42.704;23.384;2023-02-20T03:00:37;95868.88;;;9.24;nan
4617;BME280;2321;42.704;23.384;2023-02-20T03:03:08;95869.22;;;9.21;nan
4617;BME280;2321;42.704;23.384;2023-02-20T03:05:39;95877.19;;;9.21;nan
4617;BME280;2321;42.704;23.384;2023-02-20T03:08:17;95874.53;;;9.21;nan
4617;BME280;2321;42.704;23.384;2023-02-20T03:10:57;95871.72;;;9.14;nan
4617;BME280;2321;42.704;23.384;2023-02-20T03:13:29;95868.94;;;9.07;nan
4617;BME280;2321;42.704;23.384;2023-02-20T03:16:17;95873.13;;;9.01;nan
4617;BME280;2321;42.704;23.384;2023-02-20T03:18:47;95869.13;;;8.97;nan
4617;BME280;2321;42.704;23.384;2023-02-20T03:21:17;95872.28;;;8.92;nan
4617;BME280;2321;42.704;23.384;2023-02-20T03:23:51;95863.50;;;8.92;nan
4617;BME280;2321;42.704;23.384;2023-02-20T03:26:24;95871.97;;;8.87;nan
4617;BME280;2321;42.704;23.384;2023-02-20T03:28:56;95879.28;;;8.85;nan
4617;BME280;2321;42.704;23.384;2023-02-20T03:31:30;95889.25;;;8.83;nan
4617;BME280;2321;42.704;23.384;2023-02-20T03:34:03;95891.22;;;8.81;nan
4617;BME280;2321;42.704;23.384;2023-02-20T03:36:53;95900.03;;;8.81;nan
4617;BME280;2321;42.704;23.384;2023-02-20T03:39:44;95915.97;;;8.81;nan
4617;BME280;2321;42.704;23.384;2023-02-20T03:42:32;95906.50;;;8.87;nan
4617;BME280;2321;42.704;23.384;2023-02-20T03:45:19;95918.44;;;8.91;nan
4617;BME280;2321;42.704;23.384;2023-02-20T03:47:50;95918.25;;;8.93;nan
4617;BME280;2321;42.704;23.384;2023-02-20T03:50:19;95895.03;;;8.95;nan
4617;BME280;2321;42.704;23.384;2023-02-20T03:53:03;95894.19;;;8.95;nan
4617;BME280;2321;42.704;23.384;2023-02-20T03:55:32;95896.38;;;8.91;nan
4617;BME280;2321;42.704;23.384;2023-02-20T03:58:01;95890.22;;;8.90;nan
4617;BME280;2321;42.704;23.384;2023-02-20T04:00:32;95899.34;;;8.96;nan
4617;BME280;2321;42.704;23.384;2023-02-20T04:03:05;95889.88;;;8.93;nan
4617;BME280;2321;42.704;23.384;2023-02-20T04:05:36;95887.41;;;8.92;nan
4617;BME280;2321;42.704;23.384;2023-02-20T04:08:07;95889.38;;;8.90;nan
4617;BME280;2321;42.704;23.384;2023-02-20T04:10:42;95889.56;;;8.88;nan
4617;BME280;2321;42.704;23.384;2023-02-20T04:13:12;95973.81;;;9.28;nan
4617;BME280;2321;42.704;23.384;2023-02-20T04:15:40;95904.66;;;8.88;nan
4617;BME280;2321;42.704;23.384;2023-02-20T04:18:10;95918.78;;;8.88;nan
4617;BME280;2321;42.704;23.384;2023-02-20T04:20:38;95922.59;;;8.86;nan
4617;BME280;2321;42.704;23.384;2023-02-20T04:23:08;95918.94;;;8.87;nan
4617;BME280;2321;42.704;23.384;2023-02-20T04:25:43;95925.41;;;8.84;nan
4617;BME280;2321;42.704;23.384;2023-02-20T04:28:13;95913.31;;;8.81;nan
4617;BME280;2321;42.704;23.384;2023-02-20T04:30:41;95920.63;;;8.79;nan
4617;BME280;2321;42.704;23.384;2023-02-20T04:33:09;95933.41;;;8.76;nan
4617;BME280;2321;42.704;23.384;2023-02-20T04:35:36;95933.06;;;8.70;nan
4617;BME280;2321;42.704;23.384;2023-02-20T04:38:03;95937.69;;;8.68;nan
4617;BME280;2321;42.704;23.384;2023-02-20T04:40:30;95930.06;;;8.65;nan
4617;BME280;2321;42.704;23.384;2023-02-20T04:42:58;95921.78;;;8.60;nan
4617;BME280;2321;42.704;23.384;2023-02-20T04:45:25;95921.78;;;8.60;nan
4617;BME280;2321;42.704;23.384;2023-02-20T04:47:52;95933.53;;;8.57;nan
4617;BME280;2321;42.704;23.384;2023-02-20T04:50:21;95942.34;;;8.58;nan
4617;BME280;2321;42.704;23.384;2023-02-20T04:52:49;95940.00;;;8.55;nan
4617;BME280;2321;42.704;23.384;2023-02-20T04:55:16;95967.53;;;8.54;nan
4617;BME280;2321;42.704;23.384;2023-02-20T04:57:44;95956.25;;;8.52;nan
4617;BME280;2321;42.704;23.384;2023-02-20T05:00:15;95967.22;;;8.48;nan
4617;BME280;2321;42.704;23.384;2023-02-20T05:02:44;95965.53;;;8.47;nan
4617;BME280;2321;42.704;23.384;2023-02-20T05:05:16;95965.53;;;8.47;nan
4617;BME280;2321;42.704;23.384;2023-02-20T05:07:43;95968.03;;;8.49;nan
4617;BME280;2321;42.704;23.384;2023-02-20T05:10:13;95973.16;;;8.50;nan
4617;BME280;2321;42.704;23.384;2023-02-20T05:12:40;95972.66;;;8.47;nan
4617;BME280;2321;42.704;23.384;2023-02-20T05:15:07;95975.50;;;8.45;nan
4617;BME280;2321;42.704;23.384;2023-02-20T05:17:36;95972.00;;;8.45;nan
4617;BME280;2321;42.704;23.384;2023-02-20T05:20:03;95971.19;;;8.44;nan
4617;BME280;2321;42.704;23.384;2023-02-20T05:22:30;96001.19;;;8.45;nan
4617;BME280;2321;42.704;23.384;2023-02-20T05:24:56;95987.75;;;8.38;nan
4617;BME280;2321;42.704;23.384;2023-02-20T05:27:23;95993.91;;;8.38;nan
4617;BME280;2321;42.704;23.384;2023-02-20T05:29:52;95998.53;;;8.36;nan
4617;BME280;2321;42.704;23.384;2023-02-20T05:32:20;95994.72;;;8.39;nan
4617;BME280;2321;42.704;23.384;2023-02-20T05:34:49;96002.03;;;8.37;nan
4617;BME280;2321;42.704;23.384;2023-02-20T05:37:17;96003.53;;;8.39;nan
4617;BME280;2321;42.704;23.384;2023-02-20T05:39:45;96013.44;;;8.37;nan
4617;BME280;2321;42.704;23.384;2023-02-20T05:42:12;96021.72;;;8.34;nan
4617;BME280;2321;42.704;23.384;2023-02-20T05:44:40;96017.59;;;8.32;nan
4617;BME280;2321;42.704;23.384;2023-02-20T05:47:07;96009.63;;;8.32;nan
4617;BME280;2321;42.704;23.384;2023-02-20T05:49:34;96004.19;;;8.33;nan
4617;BME280;2321;42.704;23.384;2023-02-20T05:52:04;96004.00;;;8.35;nan
4617;BME280;2321;42.704;23.384;2023-02-20T05:54:36;95995.88;;;8.36;nan
4617;BME280;2321;42.704;23.384;2023-02-20T05:57:03;96003.00;;;8.36;nan
4617;BME280;2321;42.704;23.384;2023-02-20T05:59:30;96001.19;;;8.36;nan
4617;BME280;2321;42.704;23.384;2023-02-20T06:01:57;96020.44;;;8.38;nan
4617;BME280;2321;42.704;23.384;2023-02-20T06:04:25;96014.47;;;8.36;nan
4617;BME280;2321;42.704;23.384;2023-02-20T06:06:52;96001.19;;;8.36;nan
4617;BME280;2321;42.704;23.384;2023-02-20T06:09:20;96011.31;;;8.33;nan
4617;BME280;2321;42.704;23.384;2023-02-20T06:11:49;96030.72;;;8.42;nan
4617;BME280;2321;42.704;23.384;2023-02-20T06:14:16;96045.47;;;8.44;nan
4617;BME280;2321;42.704;23.384;2023-02-20T06:16:44;96028.06;;;8.50;nan
4617;BME280;2321;42.704;23.384;2023-02-20T06:19:11;96058.09;;;8.59;nan
4617;BME280;2321;42.704;23.384;2023-02-20T06:21:44;96040.53;;;8.58;nan
4617;BME280;2321;42.704;23.384;2023-02-20T06:24:11;96035.94;;;8.68;nan
4617;BME280;2321;42.704;23.384;2023-02-20T06:26:40;96053.69;;;8.76;nan
4617;BME280;2321;42.704;23.384;2023-02-20T06:29:08;96039.09;;;8.80;nan
4617;BME280;2321;42.704;23.384;2023-02-20T06:31:35;96037.59;;;8.78;nan
4617;BME280;2321;42.704;23.384;2023-02-20T06:34:02;96044.91;;;8.92;nan
4617;BME280;2321;42.704;23.384;2023-02-20T06:36:33;96031.97;;;8.98;nan
4617;BME280;2321;42.704;23.384;2023-02-20T06:39:01;96032.81;;;8.98;nan
4617;BME280;2321;42.704;23.384;2023-02-20T06:41:28;96044.59;;;9.04;nan
4617;BME280;2321;42.704;23.384;2023-02-20T06:43:56;96043.09;;;9.10;nan
4617;BME280;2321;42.704;23.384;2023-02-20T06:46:23;96060.53;;;9.12;nan
4617;BME280;2321;42.704;23.384;2023-02-20T06:48:52;96053.88;;;9.08;nan
4617;BME280;2321;42.704;23.384;2023-02-20T06:51:21;96052.38;;;9.14;nan
4617;BME280;2321;42.704;23.384;2023-02-20T06:53:48;96061.19;;;9.14;nan
4617;BME280;2321;42.704;23.384;2023-02-20T06:56:16;96086.59;;;9.09;nan
4617;BME280;2321;42.704;23.384;2023-02-20T06:58:45;96066.16;;;9.01;nan
4617;BME280;2321;42.704;23.384;2023-02-20T07:01:14;96067.16;;;8.91;nan
4617;BME280;2321;42.704;23.384;2023-02-20T07:03:41;96071.13;;;8.87;nan
4617;BME280;2321;42.704;23.384;2023-02-20T07:06:09;96063.16;;;8.87;nan
4617;BME280;2321;42.704;23.384;2023-02-20T07:08:37;96060.50;;;8.87;nan
4617;BME280;2321;42.704;23.384;2023-02-20T07:11:04;96060.69;;;8.86;nan
4617;BME280;2321;42.704;23.384;2023-02-20T07:13:31;96054.88;;;8.90;nan
4617;BME280;2321;42.704;23.384;2023-02-20T07:15:58;96068.97;;;8.99;nan
4617;BME280;2321;42.704;23.384;2023-02-20T07:18:26;96063.19;;;9.04;nan
4617;BME280;2321;42.704;23.384;2023-02-20T07:20:53;96065.34;;;9.09;nan
4617;BME280;2321;42.704;23.384;2023-02-20T07:23:21;96065.31;;;9.17;nan
4617;BME280;2321;42.704;23.384;2023-02-20T07:25:48;96059.69;;;9.20;nan
4617;BME280;2321;42.704;23.384;2023-02-20T07:28:15;96074.63;;;9.30;nan
4617;BME280;2321;42.704;23.384;2023-02-20T07:30:43;96072.97;;;9.29;nan
4617;BME280;2321;42.704;23.384;2023-02-20T07:33:11;96072.47;;;9.25;nan
4617;BME280;2321;42.704;23.384;2023-02-20T07:35:39;96064.66;;;9.23;nan
4617;BME280;2321;42.704;23.384;2023-02-20T07:38:06;96073.66;;;9.22;nan
4617;BME280;2321;42.704;23.384;2023-02-20T07:40:33;96066.81;;;9.28;nan
4617;BME280;2321;42.704;23.384;2023-02-20T07:43:01;96076.97;;;9.24;nan
4617;BME280;2321;42.704;23.384;2023-02-20T07:45:28;96077.28;;;9.21;nan
4617;BME280;2321;42.704;23.384;2023-02-20T07:47:55;96080.59;;;9.15;nan
4617;BME280;2321;42.704;23.384;2023-02-20T07:50:22;96084.44;;;9.12;nan
4617;BME280;2321;42.704;23.384;2023-02-20T07:52:50;96087.22;;;9.11;nan
4617;BME280;2321;42.704;23.384;2023-02-20T07:55:18;96094.41;;;9.10;nan
4617;BME280;2321;42.704;23.384;2023-02-20T07:57:46;96096.38;;;9.08;nan
4617;BME280;2321;42.704;23.384;2023-02-20T08:00:16;96099.22;;;9.15;nan
4617;BME280;2321;42.704;23.384;2023-02-20T08:02:44;96098.38;;;9.14;nan
4617;BME280;2321;42.704;23.384;2023-02-20T08:05:11;96111.00;;;9.21;nan
4617;BME280;2321;42.704;23.384;2023-02-20T08:07:44;96115.97;;;9.24;nan
4617;BME280;2321;42.704;23.384;2023-02-20T08:10:14;96104.53;;;9.32;nan
4617;BME280;2321;42.704;23.384;2023-02-20T08:12:41;96107.00;;;9.42;nan
4617;BME280;2321;42.704;23.384;2023-02-20T08:15:08;96109.19;;;9.38;nan
4617;BME280;2321;42.704;23.384;2023-02-20T08:17:36;96111.81;;;9.46;nan
4617;BME280;2321;42.704;23.384;2023-02-20T08:20:04;96103.00;;;9.54;nan
4617;BME280;2321;42.704;23.384;2023-02-20T08:22:31;96113.16;;;9.59;nan
4617;BME280;2321;42.704;23.384;2023-02-20T08:24:59;96109.97;;;9.64;nan
4617;BME280;2321;42.704;23.384;2023-02-20T08:27:30;96110.97;;;9.71;nan
4617;BME280;2321;42.704;23.384;2023-02-20T08:29:57;96106.81;;;9.77;nan
4617;BME280;2321;42.704;23.384;2023-02-20T08:32:25;96107.91;;;9.91;nan
4617;BME280;2321;42.704;23.384;2023-02-20T08:34:51;96116.88;;;9.98;nan
4617;BME280;2321;42.704;23.384;2023-02-20T08:37:18;96104.72;;;10.04;nan
4617;BME280;2321;42.704;23.384;2023-02-20T08:39:45;96114.50;;;10.12;nan
4617;BME280;2321;42.704;23.384;2023-02-20T08:42:14;96115.19;;;10.14;nan
4617;BME280;2321;42.704;23.384;2023-02-20T08:44:43;96103.88;;;10.12;nan
4617;BME280;2321;42.704;23.384;2023-02-20T08:47:10;96113.81;;;10.18;nan
4617;BME280;2321;42.704;23.384;2023-02-20T08:49:37;96096.13;;;10.34;nan
4617;BME280;2321;42.704;23.384;2023-02-20T08:52:04;96106.06;;;10.49;nan
4617;BME280;2321;42.704;23.384;2023-02-20T08:54:31;96104.06;;;10.51;nan
4617;BME280;2321;42.704;23.384;2023-02-20T08:56:58;96100.72;;;10.57;nan
4617;BME280;2321;42.704;23.384;2023-02-20T08:59:25;96099.69;;;10.66;nan
4617;BME280;2321;42.704;23.384;2023-02-20T09:01:53;96117.50;;;10.66;nan
4617;BME280;2321;42.704;23.384;2023-02-20T09:04:20;96100.97;;;10.71;nan
4617;BME280;2321;42.704;23.384;2023-02-20T09:43:43;96084.28;;;11.24;nan
4617;BME280;2321;42.704;23.384;2023-02-20T09:46:18;96102.31;;;11.22;nan
4617;BME280;2321;42.704;23.384;2023-02-20T09:48:56;96101.00;;;11.18;nan
4617;BME280;2321;42.704;23.384;2023-02-20T09:51:29;96098.97;;;11.20;nan
4617;BME280;2321;42.704;23.384;2023-02-20T09:53:59;96078.13;;;11.24;nan
4617;BME280;2321;42.704;23.384;2023-02-20T09:56:33;96076.44;;;11.46;nan
4617;BME280;2321;42.704;23.384;2023-02-20T09:59:05;96098.25;;;11.50;nan
4617;BME280;2321;42.704;23.384;2023-02-20T10:01:34;96090.16;;;11.58;nan
4617;BME280;2321;42.704;23.384;2023-02-20T10:04:07;96103.66;;;11.57;nan
4617;BME280;2321;42.704;23.384;2023-02-20T10:06:37;96081.06;;;11.52;nan
4617;BME280;2321;42.704;23.384;2023-02-20T10:09:05;96087.13;;;11.61;nan
4617;BME280;2321;42.704;23.384;2023-02-20T10:11:53;96082.56;;;11.70;nan
4617;BME280;2321;42.704;23.384;2023-02-20T10:14:33;96086.13;;;11.77;nan
4617;BME280;2321;42.704;23.384;2023-02-20T10:17:11;96069.47;;;11.75;nan
4617;BME280;2321;42.704;23.384;2023-02-20T10:19:43;96101.59;;;11.82;nan
4617;BME280;2321;42.704;23.384;2023-02-20T10:22:21;96062.59;;;11.81;nan
4617;BME280;2321;42.704;23.384;2023-02-20T10:24:59;96077.75;;;11.65;nan
4617;BME280;2321;42.704;23.384;2023-02-20T10:27:34;96061.09;;;11.63;nan
4617;BME280;2321;42.704;23.384;2023-02-20T10:30:05;96060.28;;;11.78;nan
4617;BME280;2321;42.704;23.384;2023-02-20T10:32:41;96063.31;;;11.90;nan
4617;BME280;2321;42.704;23.384;2023-02-20T10:35:11;96054.31;;;11.91;nan
4617;BME280;2321;42.704;23.384;2023-02-20T10:37:43;96059.47;;;11.93;nan
4617;BME280;2321;42.704;23.384;2023-02-20T10:40:17;96058.53;;;12.01;nan
4617;BME280;2321;42.704;23.384;2023-02-20T10:42:50;96060.22;;;12.17;nan
4617;BME280;2321;42.704;23.384;2023-02-20T10:45:26;96065.63;;;12.24;nan
4617;BME280;2321;42.704;23.384;2023-02-20T10:48:01;96069.06;;;12.33;nan
4617;BME280;2321;42.704;23.384;2023-02-20T10:50:34;96068.22;;;12.32;nan
4617;BME280;2321;42.704;23.384;2023-02-20T10:53:12;96055.59;;;12.41;nan
4617;BME280;2321;42.704;23.384;2023-02-20T10:55:45;96049.38;;;12.56;nan
4617;BME280;2321;42.704;23.384;2023-02-20T10:58:17;96041.88;;;12.66;nan
4617;BME280;2321;42.704;23.384;2023-02-20T11:00:49;96048.94;;;12.74;nan
4617;BME280;2321;42.704;23.384;2023-02-20T11:03:20;96064.97;;;12.74;nan
4617;BME280;2321;42.704;23.384;2023-02-20T11:05:53;96059.25;;;12.77;nan
4617;BME280;2321;42.704;23.384;2023-02-20T11:08:22;96042.78;;;12.73;nan
4617;BME280;2321;42.704;23.384;2023-02-20T11:10:53;96048.78;;;12.60;nan
4617;BME280;2321;42.704;23.384;2023-02-20T11:13:24;96036.22;;;12.76;nan
4617;BME280;2321;42.704;23.384;2023-02-20T11:15:53;96036.91;;;12.85;nan
4617;BME280;2321;42.704;23.384;2023-02-20T11:18:23;96041.56;;;12.76;nan
4617;BME280;2321;42.704;23.384;2023-02-20T11:20:53;96050.47;;;12.83;nan
4617;BME280;2321;42.704;23.384;2023-02-20T11:23:39;96036.03;;;12.78;nan
4617;BME280;2321;42.704;23.384;2023-02-20T11:26:29;96021.66;;;12.79;nan
4617;BME280;2321;42.704;23.384;2023-02-20T11:29:01;96022.84;;;12.98;nan
4617;BME280;2321;42.704;23.384;2023-02-20T11:31:28;96012.75;;;13.15;nan
4617;BME280;2321;42.704;23.384;2023-02-20T11:33:56;96019.78;;;13.23;nan
4617;BME280;2321;42.704;23.384;2023-02-20T11:36:24;96023.59;;;13.14;nan
4617;BME280;2321;42.704;23.384;2023-02-20T11:38:58;96005.91;;;13.13;nan
4617;BME280;2321;42.704;23.384;2023-02-20T11:41:28;96029.19;;;13.19;nan
4617;BME280;2321;42.704;23.384;2023-02-20T11:47:17;96023.03;;;13.18;nan
4617;BME280;2321;42.704;23.384;2023-02-20T11:49:46;96009.25;;;13.22;nan
4617;BME280;2321;42.704;23.384;2023-02-20T11:52:18;96007.81;;;13.19;nan
4617;BME280;2321;42.704;23.384;2023-02-20T11:54:47;96018.56;;;13.26;nan
4617;BME280;2321;42.704;23.384;2023-02-20T11:57:22;96010.22;;;13.36;nan
4617;BME280;2321;42.704;23.384;2023-02-20T11:59:51;96007.16;;;13.39;nan
4617;BME280;2321;42.704;23.384;2023-02-20T12:02:33;96000.69;;;13.55;nan
4617;BME280;2321;42.704;23.384;2023-02-20T12:05:06;96008.88;;;13.54;nan
4617;BME280;2321;42.704;23.384;2023-02-20T12:07:37;96015.75;;;13.63;nan
4617;BME280;2321;42.704;23.384;2023-02-20T12:13:06;96000.53;;;13.35;nan
4617;BME280;2321;42.704;23.384;2023-02-20T12:15:36;95991.09;;;13.39;nan
4617;BME280;2321;42.704;23.384;2023-02-20T12:21:19;96003.69;;;13.45;nan
4617;BME280;2321;42.704;23.384;2023-02-20T12:23:56;96001.59;;;13.40;nan
4617;BME280;2321;42.704;23.384;2023-02-20T12:26:41;96008.69;;;13.26;nan
4617;BME280;2321;42.704;23.384;2023-02-20T12:29:26;96015.59;;;13.43;nan
4617;BME280;2321;42.704;23.384;2023-02-20T12:32:10;96008.00;;;13.46;nan
4617;BME280;2321;42.704;23.384;2023-02-20T12:34:52;96025.72;;;13.47;nan
4617;BME280;2321;42.704;23.384;2023-02-20T12:37:28;96022.34;;;13.38;nan
4617;BME280;2321;42.704;23.384;2023-02-20T12:40:09;96021.84;;;13.28;nan
4617;BME280;2321;42.704;23.384;2023-02-20T12:42:49;96009.75;;;13.32;nan
4617;BME280;2321;42.704;23.384;2023-02-20T12:45:26;96011.22;;;13.35;nan
4617;BME280;2321;42.704;23.384;2023-02-20T12:48:10;96016.34;;;13.29;nan
4617;BME280;2321;42.704;23.384;2023-02-20T12:50:58;96018.63;;;13.33;nan
4617;BME280;2321;42.704;23.384;2023-02-20T12:53:34;96005.41;;;13.24;nan
4617;BME280;2321;42.704;23.384;2023-02-20T12:56:12;96002.56;;;13.33;nan
4617;BME280;2321;42.704;23.384;2023-02-20T12:58:47;95995.00;;;13.36;nan
4617;BME280;2321;42.704;23.384;2023-02-20T13:01:20;96005.53;;;13.45;nan
4617;BME280;2321;42.704;23.384;2023-02-20T13:03:55;96014.63;;;13.50;nan
4617;BME280;2321;42.704;23.384;2023-02-20T13:06:27;96016.28;;;13.51;nan
4617;BME280;2321;42.704;23.384;2023-02-20T13:09:03;96031.38;;;13.59;nan
4617;BME280;2321;42.704;23.384;2023-02-20T13:11:35;96017.44;;;13.64;nan
4617;BME280;2321;42.704;23.384;2023-02-20T13:14:15;96034.88;;;13.60;nan
4617;BME280;2321;42.704;23.384;2023-02-20T13:16:51;96013.72;;;13.43;nan
4617;BME280;2321;42.704;23.384;2023-02-20T13:19:22;96024.84;;;13.40;nan
4617;BME280;2321;42.704;23.384;2023-02-20T13:21:53;96005.97;;;13.48;nan
4617;BME280;2321;42.704;23.384;2023-02-20T13:24:31;96005.16;;;13.48;nan
4617;BME280;2321;42.704;23.384;2023-02-20T13:27:00;96011.75;;;13.52;nan
4617;BME280;2321;42.704;23.384;2023-02-20T13:29:33;96008.34;;;13.58;nan
4617;BME280;2321;42.704;23.384;2023-02-20T13:32:05;96008.06;;;13.53;nan
4617;BME280;2321;42.704;23.384;2023-02-20T13:34:47;96018.50;;;13.48;nan
4617;BME280;2321;42.704;23.384;2023-02-20T13:37:49;96016.22;;;13.45;nan
4617;BME280;2321;42.704;23.384;2023-02-20T13:40:39;96030.59;;;13.37;nan
4617;BME280;2321;42.704;23.384;2023-02-20T13:43:30;96032.13;;;13.24;nan
4617;BME280;2321;42.704;23.384;2023-02-20T13:46:16;96041.22;;;13.30;nan
4617;BME280;2321;42.704;23.384;2023-02-20T13:48:51;96038.72;;;13.28;nan
4617;BME280;2321;42.704;23.384;2023-02-20T13:51:37;96046.81;;;13.35;nan
4617;BME280;2321;42.704;23.384;2023-02-20T13:54:22;96037.66;;;13.23;nan
4617;BME280;2321;42.704;23.384;2023-02-20T13:56:52;96026.34;;;13.21;nan
4617;BME280;2321;42.704;23.384;2023-02-20T13:59:24;96034.16;;;13.22;nan
4617;BME280;2321;42.704;23.384;2023-02-20T14:01:57;96029.03;;;13.21;nan
4617;BME280;2321;42.704;23.384;2023-02-20T14:04:25;96036.34;;;13.12;nan
4617;BME280;2321;42.704;23.384;2023-02-20T14:06:54;96026.75;;;12.95;nan
4617;BME280;2321;42.704;23.384;2023-02-20T14:09:23;96029.66;;;13.01;nan
4617;BME280;2321;42.704;23.384;2023-02-20T14:11:53;96024.19;;;13.09;nan
4617;BME280;2321;42.704;23.384;2023-02-20T14:14:26;96040.03;;;13.11;nan
4617;BME280;2321;42.704;23.384;2023-02-20T14:17:03;96028.41;;;12.96;nan
4617;BME280;2321;42.704;23.384;2023-02-20T14:19:37;96044.13;;;12.84;nan
4617;BME280;2321;42.704;23.384;2023-02-20T14:22:24;96033.38;;;12.78;nan
4617;BME280;2321;42.704;23.384;2023-02-20T14:28:11;96037.34;;;12.67;nan
4617;BME280;2321;42.704;23.384;2023-02-20T14:30:38;96045.66;;;12.72;nan
4617;BME280;2321;42.704;23.384;2023-02-20T14:33:23;96051.25;;;12.77;nan
4617;BME280;2321;42.704;23.384;2023-02-20T14:39:06;96048.53;;;12.55;nan
4617;BME280;2321;42.704;23.384;2023-02-20T14:41:36;96054.38;;;12.44;nan
4617;BME280;2321;42.704;23.384;2023-02-20T14:44:05;96060.09;;;12.40;nan
4617;BME280;2321;42.704;23.384;2023-02-20T14:46:40;96058.16;;;12.34;nan
4617;BME280;2321;42.704;23.384;2023-02-20T14:49:08;96055.13;;;12.37;nan
4617;BME280;2321;42.704;23.384;2023-02-20T14:51:38;96055.31;;;12.36;nan
4617;BME280;2321;42.704;23.384;2023-02-20T14:54:16;96061.84;;;12.33;nan